Weather History for KGBG - January, 2014

Change the Weather History Date:

Wednesday, January 1, 2014

  Actual Average Record
Temperature  
Mean Temperature 14 °F -  
Max Temperature 16 °F 29 °F 53 °F (2004)
Min Temperature 12 °F 14 °F -13 °F (1968)
Degree Days  
Heating Degree Days 51    
Moisture  
Dew Point 12 °F    
Average Humidity 92    
Maximum Humidity 95    
Minimum Humidity 88    
Precipitation  
Precipitation 0.00 in - - ()
Sea Level Pressure  
Sea Level Pressure 30.18 in    
Wind  
Wind Speed 13 mph (NNE)    
Max Wind Speed 21 mph    
Max Gust Speed 28 mph    
Visibility 7 miles    
Events Snow    
Averages and records for this station are not official NWS values.
T = Trace of Precipitation, MM = Missing Value Source: NWS Daily Summary

Daily Weather History Graph

Daily Weather History Graph

Search for Another Location

Airport or City:

Trip Planner

Search our weather history database for the weather conditions in past years. The results will help you decide how hot, cold, wet, or windy it might be!

Date:

Astronomy

Jan. 01, 2014 Rise Set
Actual Time 7:26 AM CST 4:44 PM CST
Civil Twilight 6:55 AM CST 5:15 PM CST
Nautical Twilight 6:21 AM CST 5:49 PM CST
Astronomical Twilight 5:47 AM CST 6:23 PM CST
Moon 7:16 AM CST (1/1) 5:30 PM CST (1/1)
Length of Visible Light 10h 19m
Length of Day
9h 17m
New Moon, 0% of the Moon is Illuminated
Jan 1
New Moon
Jan 7
First Quarter
Jan 15
Full
Jan 23
Last Quarter
Jan 30
New

Hourly Weather History & Observations

Time (CST) Temp. Windchill Dew Point Humidity Pressure Visibility Wind Dir Wind Speed Gust Speed Precip Events Conditions
12:15 AM 14.4 °F 0.2 °F 11.7 °F 89% 30.19 in 10.0 mi NE 12.7 mph 17.3 mph N/A   Clear
12:35 AM 14.5 °F 1.9 °F 11.8 °F 89% 30.19 in 10.0 mi NE 10.4 mph - N/A   Mostly Cloudy
12:55 AM 14.5 °F 0.5 °F 11.8 °F 89% 30.18 in 10.0 mi ENE 12.7 mph 17.3 mph N/A   Mostly Cloudy
1:15 AM 14.7 °F 0.1 °F 12.2 °F 90% 30.18 in 10.0 mi NE 13.8 mph - N/A   Mostly Cloudy
1:35 AM 14.7 °F 1.4 °F 12.2 °F 90% 30.18 in 10.0 mi NE 11.5 mph 18.4 mph N/A   Overcast
1:55 AM 14.7 °F 2.1 °F 12.2 °F 90% 30.18 in 10.0 mi NE 10.4 mph - N/A   Overcast
2:15 AM 14.7 °F 0.7 °F 12.2 °F 90% 30.19 in 10.0 mi NE 12.7 mph - N/A   Mostly Cloudy
2:35 AM 14.5 °F -0.7 °F 12.0 °F 90% 30.19 in 10.0 mi NE 15.0 mph - N/A   Overcast
2:55 AM 14.4 °F -0.4 °F 12.0 °F 90% 30.18 in 10.0 mi ENE 13.8 mph - N/A   Overcast
3:15 AM 14.4 °F -0.4 °F 12.0 °F 90% 30.18 in 10.0 mi NE 13.8 mph 17.3 mph N/A   Overcast
3:35 AM 14.0 °F 1.2 °F 11.7 °F 90% 30.18 in 10.0 mi NE 10.4 mph - N/A   Overcast
3:55 AM 13.6 °F 0.7 °F 11.5 °F 91% 30.18 in 10.0 mi NE 10.4 mph - N/A   Scattered Clouds
4:15 AM 13.1 °F 0.1 °F 11.1 °F 92% 30.17 in 10.0 mi NE 10.4 mph - N/A   Clear
4:35 AM 12.9 °F -1.6 °F 10.9 °F 92% 30.17 in 10.0 mi NE 12.7 mph 17.3 mph N/A   Clear
4:55 AM 12.6 °F -0.6 °F 10.6 °F 92% 30.17 in 10.0 mi NE 10.4 mph 17.3 mph N/A   Mostly Cloudy
5:15 AM 12.7 °F -1.1 °F 10.9 °F 92% 30.16 in 10.0 mi NE 11.5 mph - N/A   Overcast
5:35 AM 12.7 °F -0.4 °F 10.9 °F 92% 30.17 in 10.0 mi NE 10.4 mph - N/A   Overcast
5:55 AM 13.1 °F -1.4 °F 11.3 °F 93% 30.17 in 10.0 mi NE 12.7 mph - N/A   Overcast
6:15 AM 13.5 °F -1.5 °F 11.8 °F 93% 30.17 in 10.0 mi NE 13.8 mph 18.4 mph N/A   Overcast
6:35 AM 13.1 °F -0.7 °F 11.3 °F 93% 30.17 in 10.0 mi NE 11.5 mph - N/A   Overcast
6:55 AM 12.9 °F -0.9 °F 11.3 °F 93% 30.16 in 10.0 mi NE 11.5 mph - N/A   Overcast
7:15 AM 13.1 °F -1.4 °F 11.3 °F 93% 30.17 in 10.0 mi NE 12.7 mph - N/A   Overcast
7:35 AM 13.5 °F -0.2 °F 12.0 °F 94% 30.18 in 10.0 mi NNE 11.5 mph - N/A   Overcast
7:55 AM 13.8 °F -1.1 °F 12.7 °F 95% 30.18 in 7.0 mi NE 13.8 mph 17.3 mph N/A   Overcast
8:15 AM 13.6 °F -0.7 °F 12.2 °F 94% 30.19 in 7.0 mi NNE 12.7 mph - N/A   Overcast
8:35 AM 13.1 °F -2.0 °F 11.7 °F 94% 30.19 in 10.0 mi NNE 13.8 mph - N/A   Overcast
8:55 AM 13.1 °F -2.6 °F 11.5 °F 93% 30.20 in 7.0 mi NNE 15.0 mph - N/A   Overcast
9:15 AM 13.6 °F -2.4 °F 12.0 °F 93% 30.20 in 7.0 mi NNE 16.1 mph - N/A   Overcast
9:35 AM 13.8 °F -1.7 °F 12.0 °F 93% 30.21 in 5.0 mi NNE 15.0 mph - N/A   Overcast
9:55 AM 14.0 °F -1.4 °F 12.0 °F 92% 30.21 in 7.0 mi NNE 15.0 mph - N/A   Overcast
10:15 AM 14.2 °F 0.0 °F 12.2 °F 92% 30.21 in 7.0 mi NE 12.7 mph 19.6 mph N/A   Overcast
10:35 AM 14.7 °F -0.5 °F 12.7 °F 92% 30.21 in 7.0 mi NNE 15.0 mph - N/A   Overcast
10:55 AM 14.9 °F -0.3 °F 12.9 °F 92% 30.19 in 7.0 mi NNE 15.0 mph - N/A   Overcast
11:15 AM 15.3 °F 1.4 °F 13.3 °F 92% 30.18 in 7.0 mi NNE 12.7 mph 16.1 mph N/A   Overcast
11:35 AM 15.6 °F 1.2 °F 13.8 °F 93% 30.17 in 10.0 mi NE 13.8 mph 19.6 mph N/A   Overcast
11:55 AM 16.0 °F 3.6 °F 14.0 °F 92% 30.18 in 10.0 mi NNE 10.4 mph - N/A   Overcast
12:15 PM 16.2 °F 3.2 °F 14.0 °F 91% 30.17 in 10.0 mi NNE 11.5 mph - N/A   Overcast
12:35 PM 16.2 °F 1.9 °F 14.0 °F 91% 30.17 in 10.0 mi NNE 13.8 mph - N/A   Overcast
12:55 PM 16.3 °F 2.1 °F 14.2 °F 91% 30.16 in 10.0 mi North 13.8 mph - N/A   Overcast
1:15 PM 15.8 °F 0.9 °F 13.6 °F 91% 30.15 in 10.0 mi NNE 15.0 mph - N/A   Overcast
1:35 PM 15.8 °F 2.1 °F 13.6 °F 91% 30.16 in 10.0 mi NNE 12.7 mph - N/A   Overcast
1:55 PM 15.8 °F 1.4 °F 13.5 °F 90% 30.15 in 10.0 mi North 13.8 mph - N/A   Overcast
2:15 PM 16.0 °F 2.3 °F 13.6 °F 90% 30.15 in 5.0 mi NNE 12.7 mph - N/A   Overcast
2:35 PM 15.8 °F 1.4 °F 13.8 °F 92% 30.15 in 4.0 mi NNE 13.8 mph - N/A Snow Light Snow
2:55 PM 16.3 °F 2.7 °F 14.4 °F 92% 30.15 in 4.0 mi NNE 12.7 mph - N/A Snow Light Snow
3:15 PM 16.7 °F 3.2 °F 14.9 °F 93% 30.15 in 4.0 mi NNE 12.7 mph - N/A Snow Light Snow
3:35 PM 15.8 °F 1.4 °F 14.0 °F 93% 30.15 in 2.0 mi NNE 13.8 mph - N/A Snow Light Snow
3:55 PM 15.8 °F 1.4 °F 14.2 °F 93% 30.15 in 2.5 mi NNE 13.8 mph - N/A Snow Light Snow
4:15 PM 15.8 °F 2.1 °F 14.2 °F 93% 30.16 in 3.0 mi NNE 12.7 mph - N/A Snow Light Snow
4:35 PM 16.2 °F 2.5 °F 14.7 °F 94% 30.16 in 5.0 mi NNE 12.7 mph - N/A Snow Light Snow
4:55 PM 16.2 °F 2.5 °F 14.7 °F 94% 30.16 in 3.0 mi NNE 12.7 mph - N/A Snow Light Snow
5:15 PM 16.2 °F 1.9 °F 14.7 °F 94% 30.16 in 3.0 mi NNE 13.8 mph - N/A Snow Light Snow
5:35 PM 16.2 °F 1.9 °F 14.9 °F 95% 30.16 in 3.0 mi NNE 13.8 mph - N/A Snow Light Snow
5:55 PM 16.3 °F 2.1 °F 14.9 °F 94% 30.16 in 2.5 mi NNE 13.8 mph - N/A Snow Light Snow
6:15 PM 15.8 °F 0.3 °F 14.4 °F 94% 30.17 in 2.0 mi NNE 16.1 mph - N/A Snow Light Snow
6:35 PM 15.6 °F 0.1 °F 14.0 °F 93% 30.17 in 3.0 mi North 16.1 mph - N/A Snow Light Snow
6:55 PM 15.3 °F 0.8 °F 13.8 °F 94% 30.18 in 3.0 mi North 13.8 mph - N/A Snow Light Snow
7:15 PM 14.9 °F -1.3 °F 13.5 °F 94% 30.19 in 3.0 mi North 17.3 mph - N/A Snow Light Snow
7:35 PM 14.9 °F -1.8 °F 13.5 °F 94% 30.19 in 2.0 mi North 18.4 mph - N/A Snow Light Snow
7:55 PM 14.9 °F -2.3 °F 13.5 °F 94% 30.19 in 1.8 mi North 19.6 mph - N/A Snow Light Snow
8:15 PM 14.5 °F -2.7 °F 12.7 °F 93% 30.19 in 2.5 mi North 19.6 mph 27.6 mph N/A Snow Light Snow
8:35 PM 14.4 °F -3.0 °F 12.7 °F 93% 30.19 in 1.8 mi North 19.6 mph 23.0 mph N/A Snow Light Snow
8:55 PM 13.6 °F -3.5 °F 11.8 °F 93% 30.19 in 3.0 mi North 18.4 mph - N/A Snow Light Snow
9:15 PM 12.9 °F -3.9 °F 10.9 °F 92% 30.19 in 4.0 mi North 17.3 mph 25.3 mph N/A Snow Light Snow
9:35 PM 12.7 °F -4.6 °F 10.4 °F 90% 30.19 in 5.0 mi North 18.4 mph - N/A Snow Light Snow
9:55 PM 12.9 °F -4.4 °F 10.4 °F 90% 30.20 in 5.0 mi North 18.4 mph - N/A Snow Light Snow
10:15 PM 12.6 °F -5.3 °F 9.7 °F 88% 30.19 in 10.0 mi North 19.6 mph - N/A   Overcast
10:35 PM 12.2 °F -4.8 °F 9.5 °F 89% 30.19 in 10.0 mi North 17.3 mph 26.5 mph N/A   Overcast
10:55 PM 12.2 °F -6.3 °F 9.3 °F 88% 30.19 in 10.0 mi North 20.7 mph 24.2 mph N/A   Overcast
11:15 PM 12.0 °F -5.1 °F 9.1 °F 88% 30.19 in 10.0 mi North 17.3 mph - N/A   Overcast
11:35 PM 12.2 °F -5.3 °F 9.5 °F 89% 30.18 in 10.0 mi North 18.4 mph - N/A   Overcast
11:55 PM 12.2 °F -5.8 °F 9.5 °F 89% 30.18 in 10.0 mi North 19.6 mph 23.0 mph N/A   Overcast